Rotterdam Express — DMRX — position and weather

sailwx.info

Track history (hours):
 
Tides and Currents Weather Stations Pressure Air Temp Water Temp Dewpoint Dewpoint Depression Visibility Wind Speed Wind Dir Waves Ship Positions

Rotterdam Express

Last reported at 2015-Jul-04 23:33 UTC. Time now 2015-Jul-05 00:10 UTC.
Position N 40°51' E 014°16'.

Length 294 m; beam 32.2 m; draft 13.6 m.

Type: Ship. MMSI: 211335760.

Date/timePositionNaut miles runAvg speedWind from/ knotsBaromVisibWave heightAir tempDewpointWater temp
2015-Jul-04 23:33N 40°51' E 014°16'0 0.0
2015-Jul-04 19:15N 40°51' E 014°16'0 0.0
2015-Jul-04 18:33N 40°51' E 014°16'0 0.0
2015-Jul-04 17:24N 40°51' E 014°16'0 0.0
2015-Jul-04 16:33N 40°51' E 014°16'0 0.0
2015-Jul-04 15:33N 40°51' E 014°16'0 0.0
2015-Jul-04 14:33N 40°51' E 014°16'0 0.0
2015-Jul-04 13:33N 40°51' E 014°16'0 0.0
2015-Jul-04 12:33N 40°51' E 014°16'0 0.0
2015-Jul-04 11:33N 40°51' E 014°16'0 0.0
2015-Jul-04 10:33N 40°51' E 014°16'0 0.0
2015-Jul-04 09:33N 40°51' E 014°16'0 0.0
2015-Jul-04 08:33N 40°51' E 014°16'0 0.0
2015-Jul-04 07:33N 40°51' E 014°16'0 0.0
2015-Jul-04 06:21N 40°51' E 014°16'0 0.0
2015-Jul-04 05:27N 40°51' E 014°16'0 0.0
2015-Jul-04 04:33N 40°51' E 014°16'0 0.0
2015-Jul-04 03:33N 40°51' E 014°16'0 0.0
2015-Jul-04 02:24N 40°51' E 014°16'0 0.0
2015-Jul-04 01:33N 40°51' E 014°16'0 0.0
2015-Jul-04 00:33N 40°51' E 014°16'0 0.0
2015-Jul-03 23:24N 40°51' E 014°16'0 0.0
2015-Jul-03 22:33N 40°51' E 014°16'0 0.0
2015-Jul-03 21:30N 40°51' E 014°16'0 0.0
2015-Jul-03 20:33N 40°51' E 014°16'0 0.0
2015-Jul-03 19:30N 40°51' E 014°16'0 0.0
2015-Jul-03 18:33N 40°51' E 014°16'0 0.0
2015-Jul-03 17:30N 40°51' E 014°16'0 0.0
2015-Jul-03 16:30N 40°51' E 014°16'0 0.0
2015-Jul-03 15:33N 40°51' E 014°16'0 0.0
2015-Jul-03 14:30N 40°51' E 014°16'0 0.0
2015-Jul-03 13:33N 40°51' E 014°16'0 0.0
2015-Jul-03 12:30N 40°51' E 014°16'0 0.0
2015-Jul-03 11:33N 40°51' E 014°16'0 0.0
2015-Jul-03 10:30N 40°51' E 014°16'0 0.0
2015-Jul-03 09:33N 40°51' E 014°16'0 0.0
2015-Jul-03 08:33N 40°51' E 014°16'0 0.0
2015-Jul-03 07:33N 40°51' E 014°16'0 0.0
2015-Jul-03 06:18N 40°51' E 014°16'0 0.0
2015-Jul-03 05:33N 40°51' E 014°16'0 0.0
2015-Jul-03 04:33N 40°51' E 014°16'0 0.0
2015-Jul-03 03:30N 40°51' E 014°16'0 0.0
2015-Jul-03 02:30N 40°51' E 014°16'0 0.0
2015-Jul-03 01:33N 40°51' E 014°16'0 0.0
2015-Jul-02 22:12N 40°51' E 014°16'0 0.0
2015-Jul-02 21:12N 40°51' E 014°16'0 0.0
2015-Jul-02 20:30N 40°51' E 014°16'0 0.0
2015-Jul-02 19:30N 40°51' E 014°16'0 0.0
2015-Jul-02 16:15N 40°51' E 014°16'0 0.0
2015-Jul-02 15:12N 40°51' E 014°16'0 0.0
2015-Jul-02 14:30N 40°51' E 014°16'0 0.0
2015-Jul-02 13:33N 40°51' E 014°16'0 0.0
2015-Jul-02 12:33N 40°51' E 014°16'0 0.0
2015-Jul-02 11:33N 40°51' E 014°16'0 0.0
2015-Jul-02 09:09N 40°51' E 014°16'0 0.1
2015-Jul-02 06:26N 40°50' E 014°16'4 4.4
2015-Jul-02 05:33N 40°46' E 014°17'1313.0
2015-Jul-02 04:33N 40°38' E 014°04'1716.6
2015-Jul-02 03:34N 40°30' E 013°44'2017.1
2015-Jul-02 02:24N 40°22' E 013°21'1417.1
2015-Jul-02 01:33N 40°16' E 013°04'2417.1
2015-Jul-02 00:08N 40°05' E 012°36'1016.9
2015-Jul-01 23:33N 40°00' E 012°24'4 3.9
2015-Jul-01 22:33N 39°59' E 012°19'1 0.6
2015-Jul-01 21:26N 39°59' E 012°20'0 0.5
2015-Jul-01 20:33N 39°59' E 012°21'0 0.5
2015-Jul-01 19:33N 39°60' E 012°21'0 0.3
2015-Jul-01 18:29N 40°00' E 012°21'0 0.3
2015-Jul-01 17:33N 40°00' E 012°21'22 7.3
2015-Jul-01 14:33N 39°50' E 011°56'3717.5
2015-Jul-01 12:27N 39°33' E 011°13'1022.9
2015-Jul-01 12:00N 39°30' E 011°00'712.9 150 / 21020.010.8 1.029.024.526.0
2015-Jul-01 11:25N 39°25' E 010°52'1716.8
2015-Jul-01 10:24N 39°18' E 010°33'3116.9
2015-Jul-01 08:33N 39°04' E 009°56'1716.8
2015-Jul-01 07:33N 38°57' E 009°36'1616.1
2015-Jul-01 06:33N 39°01' E 009°16'1313.4
2015-Jul-01 05:33N 39°12' E 009°06'1 1.4
2015-Jul-01 04:32N 39°13' E 009°04'0 0.0
2015-Jul-01 03:32N 39°13' E 009°04'0 0.0
2015-Jul-01 02:29N 39°13' E 009°04'0 0.0
2015-Jul-01 01:29N 39°13' E 009°04'0 0.0
2015-Jul-01 00:32N 39°13' E 009°04'0 0.0
2015-Jun-30 23:26N 39°13' E 009°04'0 0.0
2015-Jun-30 22:29N 39°13' E 009°04'0 0.0
2015-Jun-30 21:32N 39°13' E 009°04'0 0.0
2015-Jun-30 20:32N 39°13' E 009°04'0 0.0
2015-Jun-30 19:32N 39°13' E 009°04'0 0.0
2015-Jun-30 18:29N 39°13' E 009°04'0 0.0
2015-Jun-30 17:29N 39°13' E 009°04'0 0.0
2015-Jun-30 16:32N 39°13' E 009°04'0 0.0
2015-Jun-30 15:26N 39°13' E 009°04'0 0.0
2015-Jun-30 14:29N 39°13' E 009°04'0 0.0
2015-Jun-30 13:32N 39°13' E 009°04'0 0.0
2015-Jun-30 12:32N 39°13' E 009°04'0 0.0
2015-Jun-30 11:26N 39°13' E 009°04'0 0.0
2015-Jun-30 10:20N 39°13' E 009°04'0 0.0
2015-Jun-30 09:32N 39°13' E 009°04'0 0.0
2015-Jun-30 08:08N 39°13' E 009°04'0 0.0
2015-Jun-30 07:32N 39°13' E 009°04'0 0.0
2015-Jun-30 06:33N 39°13' E 009°04'0 0.0
2015-Jun-30 05:33N 39°13' E 009°04'0 0.0
2015-Jun-30 04:31N 39°13' E 009°04'0 0.0
2015-Jun-30 03:16N 39°13' E 009°04'0 0.0
2015-Jun-30 02:28N 39°13' E 009°04'0 0.0
2015-Jun-30 01:28N 39°13' E 009°04'0 0.0
2015-Jun-30 00:31N 39°13' E 009°04'0 0.0
2015-Jun-29 23:28N 39°13' E 009°04'0 0.0
2015-Jun-29 22:31N 39°13' E 009°04'0 0.0
2015-Jun-29 21:26N 39°13' E 009°04'0 0.0
2015-Jun-29 20:32N 39°13' E 009°04'0 0.0
2015-Jun-29 19:32N 39°13' E 009°04'0 0.0
2015-Jun-29 18:26N 39°13' E 009°04'0 0.0
2015-Jun-29 17:33N 39°13' E 009°04'4 4.0
2015-Jun-29 16:33N 39°09' E 009°06'1514.5
2015-Jun-29 15:33N 38°55' E 009°06'6 6.0
2015-Jun-29 14:33N 38°49' E 009°02'0 0.3
2015-Jun-29 13:32N 38°49' E 009°03'1 0.6
2015-Jun-29 12:33N 38°49' E 009°03'1 0.6
2015-Jun-29 11:33N 38°49' E 009°04'1 0.6
2015-Jun-29 10:33N 38°50' E 009°05'0 0.5
2015-Jun-29 09:33N 38°50' E 009°05'0 0.5
2015-Jun-29 08:32N 38°50' E 009°06'1 0.6
2015-Jun-29 06:32N 38°50' E 009°07'1211.2
2015-Jun-29 05:27N 38°41' E 008°56'1415.3
2015-Jun-29 04:33N 38°38' E 008°39'6415.4
2015-Jun-29 00:23N 38°26' E 007°18'6315.4
2015-Jun-28 20:17N 38°15' E 005°59'1315.3
2015-Jun-28 19:27N 38°13' E 005°43'1315.1
2015-Jun-28 18:33N 38°11' E 005°26'1515.0
2015-Jun-28 17:33N 38°08' E 005°08'1514.8
2015-Jun-28 16:33N 38°05' E 004°49'1514.7
2015-Jun-28 15:33N 38°03' E 004°31'1514.8
2015-Jun-28 14:33N 38°00' E 004°12'1514.9
2015-Jun-28 13:33N 37°57' E 003°54'1515.3
2015-Jun-28 12:33N 37°55' E 003°35'1715.0
2015-Jun-28 11:27N 37°52' E 003°14'1314.7
2015-Jun-28 10:33N 37°49' E 002°57'1514.7
2015-Jun-28 09:33N 37°47' E 002°39'1514.9
2015-Jun-28 08:33N 37°44' E 002°21'1616.0
2015-Jun-28 07:32N 37°41' E 002°01'1917.1
2015-Jun-28 06:27N 37°38' E 001°37'1315.0
2015-Jun-28 05:33N 37°36' E 001°21'1515.2
2015-Jun-28 04:33N 37°33' E 001°02'1615.5
2015-Jun-28 03:33N 37°30' E 000°42'1514.5
2015-Jun-28 02:33N 37°27' E 000°24'1514.7
2015-Jun-28 01:33N 37°24' E 000°06'1514.5
2015-Jun-28 00:33N 37°18' W 000°11'915.7
2015-Jun-28 00:00N 37°12' W 000°18'715.4 350 / 111022.0 5.4 2.023.021.224.0
2015-Jun-27 23:33N 37°11' W 000°26'1515.0
2015-Jun-27 22:33N 37°03' W 000°42'1514.9
2015-Jun-27 21:33N 36°56' W 000°59'1615.1
2015-Jun-27 20:29N 36°47' W 001°16'1814.9
2015-Jun-27 19:16N 36°38' W 001°35'1114.7
2015-Jun-27 18:33N 36°32' W 001°46'1514.6
2015-Jun-27 17:33N 36°25' W 002°02'1514.8
2015-Jun-27 16:33N 36°21' W 002°20'1514.8
2015-Jun-27 15:33N 36°17' W 002°37'1515.4
2015-Jun-27 14:33N 36°15' W 002°56'3814.8
2015-Jun-27 12:00N 36°06' W 003°42'7516.3 060 / 111019.010.8 2.026.021.522.0
2015-Jun-27 07:24N 36°00' W 005°15'1416.3
2015-Jun-27 06:33N 35°56' W 005°31'8713.2
2015-Jun-27 00:00N 36°00' W 007°18'5815.6 040 / 181017.010.8 3.023.015.623.0
2015-Jun-26 20:16N 36°13' W 008°28'1215.1
2015-Jun-26 19:28N 36°15' W 008°43'1415.2
2015-Jun-26 18:34N 36°17' W 008°60'1515.2
2015-Jun-26 17:33N 36°20' W 009°19'1514.9
2015-Jun-26 16:34N 36°23' W 009°37'1514.9
2015-Jun-26 15:33N 36°25' W 009°55'4 7.8
2015-Jun-26 15:00N 36°24' W 010°00'1124.9 360 / 201021.010.8 3.024.019.021.0
2015-Jun-26 14:33N 36°28' W 010°13'1717.1
2015-Jun-26 13:33N 36°31' W 010°34'1515.5
2015-Jun-26 12:34N 36°33' W 010°53'1514.6
2015-Jun-26 11:33N 36°36' W 011°11'1514.6
2015-Jun-26 10:33N 36°38' W 011°29'1414.5
2015-Jun-26 09:33N 36°40' W 011°46'1514.6
2015-Jun-26 08:32N 36°42' W 012°05'1414.7
2015-Jun-26 07:33N 36°44' W 012°23'1514.9
2015-Jun-26 06:33N 36°47' W 012°41'610.2
2015-Jun-26 06:00N 36°48' W 012°48'1020.1 010 / 131023.610.8 19.315.021.0
2015-Jun-26 05:29N 36°49' W 013°01'1414.9
2015-Jun-26 04:33N 36°51' W 013°18'1514.8
2015-Jun-26 03:33N 36°53' W 013°36'5 8.6
2015-Jun-26 03:00N 36°54' W 013°42'1022.7 360 / 101024.0 5.4 2.019.016.521.0
2015-Jun-26 02:32N 36°55' W 013°55'1514.8
2015-Jun-26 01:32N 36°57' W 014°13'1514.9
2015-Jun-26 00:32N 36°58' W 014°32'9514.5
2015-Jun-25 18:00N 37°06' W 016°30'4816.1 230 / 71023.510.8 26.018.222.0
2015-Jun-25 15:00N 37°12' W 017°30'12013.3 220 / 111023.010.8 2.023.017.921.0
2015-Jun-25 06:00N 37°24' W 020°00'1320.3 220 / 81021.210.8 20.318.621.0
2015-Jun-25 05:22N 37°24' W 020°16'2015.2
2015-Jun-25 04:04N 37°25' W 020°41'915.6
2015-Jun-25 03:30N 37°26' W 020°52'713.1
2015-Jun-25 03:00N 37°24' W 021°00'919.5 230 / 121021.010.8 2.020.016.422.0
2015-Jun-25 02:33N 37°27' W 021°10'2015.5
2015-Jun-25 01:14N 37°28' W 021°36'1115.2
2015-Jun-25 00:30N 37°28' W 021°50'  
Track history (hours):
 
Tides and Currents Weather Stations Pressure Air Temp Water Temp Dewpoint Dewpoint Depression Visibility Wind Speed Wind Dir Waves Ship Positions

Rotterdam Express

Last reported at 2015-Jul-04 23:33 UTC. Time now 2015-Jul-05 00:10 UTC.
Position N 40°51' E 014°16'.

Length 294 m; beam 32.2 m; draft 13.6 m.

Type: Ship. MMSI: 211335760.

Date/timePositionNaut miles runAvg speedWind from/ knotsBaromVisibWave heightAir tempDewpointWater temp
2015-Jul-04 23:33N 40°51' E 014°16'0 0.0
2015-Jul-04 19:15N 40°51' E 014°16'0 0.0
2015-Jul-04 18:33N 40°51' E 014°16'0 0.0
2015-Jul-04 17:24N 40°51' E 014°16'0 0.0
2015-Jul-04 16:33N 40°51' E 014°16'0 0.0
2015-Jul-04 15:33N 40°51' E 014°16'0 0.0
2015-Jul-04 14:33N 40°51' E 014°16'0 0.0
2015-Jul-04 13:33N 40°51' E 014°16'0 0.0
2015-Jul-04 12:33N 40°51' E 014°16'0 0.0
2015-Jul-04 11:33N 40°51' E 014°16'0 0.0
2015-Jul-04 10:33N 40°51' E 014°16'0 0.0
2015-Jul-04 09:33N 40°51' E 014°16'0 0.0
2015-Jul-04 08:33N 40°51' E 014°16'0 0.0
2015-Jul-04 07:33N 40°51' E 014°16'0 0.0
2015-Jul-04 06:21N 40°51' E 014°16'0 0.0
2015-Jul-04 05:27N 40°51' E 014°16'0 0.0
2015-Jul-04 04:33N 40°51' E 014°16'0 0.0
2015-Jul-04 03:33N 40°51' E 014°16'0 0.0
2015-Jul-04 02:24N 40°51' E 014°16'0 0.0
2015-Jul-04 01:33N 40°51' E 014°16'0 0.0
2015-Jul-04 00:33N 40°51' E 014°16'0 0.0
2015-Jul-03 23:24N 40°51' E 014°16'0 0.0
2015-Jul-03 22:33N 40°51' E 014°16'0 0.0
2015-Jul-03 21:30N 40°51' E 014°16'0 0.0
2015-Jul-03 20:33N 40°51' E 014°16'0 0.0
2015-Jul-03 19:30N 40°51' E 014°16'0 0.0
2015-Jul-03 18:33N 40°51' E 014°16'0 0.0
2015-Jul-03 17:30N 40°51' E 014°16'0 0.0
2015-Jul-03 16:30N 40°51' E 014°16'0 0.0
2015-Jul-03 15:33N 40°51' E 014°16'0 0.0
2015-Jul-03 14:30N 40°51' E 014°16'0 0.0
2015-Jul-03 13:33N 40°51' E 014°16'0 0.0
2015-Jul-03 12:30N 40°51' E 014°16'0 0.0
2015-Jul-03 11:33N 40°51' E 014°16'0 0.0
2015-Jul-03 10:30N 40°51' E 014°16'0 0.0
2015-Jul-03 09:33N 40°51' E 014°16'0 0.0
2015-Jul-03 08:33N 40°51' E 014°16'0 0.0
2015-Jul-03 07:33N 40°51' E 014°16'0 0.0
2015-Jul-03 06:18N 40°51' E 014°16'0 0.0
2015-Jul-03 05:33N 40°51' E 014°16'0 0.0
2015-Jul-03 04:33N 40°51' E 014°16'0 0.0
2015-Jul-03 03:30N 40°51' E 014°16'0 0.0
2015-Jul-03 02:30N 40°51' E 014°16'0 0.0
2015-Jul-03 01:33N 40°51' E 014°16'0 0.0
2015-Jul-02 22:12N 40°51' E 014°16'0 0.0
2015-Jul-02 21:12N 40°51' E 014°16'0 0.0
2015-Jul-02 20:30N 40°51' E 014°16'0 0.0
2015-Jul-02 19:30N 40°51' E 014°16'0 0.0
2015-Jul-02 16:15N 40°51' E 014°16'0 0.0
2015-Jul-02 15:12N 40°51' E 014°16'0 0.0
2015-Jul-02 14:30N 40°51' E 014°16'0 0.0
2015-Jul-02 13:33N 40°51' E 014°16'0 0.0
2015-Jul-02 12:33N 40°51' E 014°16'0 0.0
2015-Jul-02 11:33N 40°51' E 014°16'0 0.0
2015-Jul-02 09:09N 40°51' E 014°16'0 0.1
2015-Jul-02 06:26N 40°50' E 014°16'4 4.4
2015-Jul-02 05:33N 40°46' E 014°17'1313.0
2015-Jul-02 04:33N 40°38' E 014°04'1716.6
2015-Jul-02 03:34N 40°30' E 013°44'2017.1
2015-Jul-02 02:24N 40°22' E 013°21'1417.1
2015-Jul-02 01:33N 40°16' E 013°04'2417.1
2015-Jul-02 00:08N 40°05' E 012°36'1016.9
2015-Jul-01 23:33N 40°00' E 012°24'4 3.9
2015-Jul-01 22:33N 39°59' E 012°19'1 0.6
2015-Jul-01 21:26N 39°59' E 012°20'0 0.5
2015-Jul-01 20:33N 39°59' E 012°21'0 0.5
2015-Jul-01 19:33N 39°60' E 012°21'0 0.3
2015-Jul-01 18:29N 40°00' E 012°21'0 0.3
2015-Jul-01 17:33N 40°00' E 012°21'22 7.3
2015-Jul-01 14:33N 39°50' E 011°56'3717.5
2015-Jul-01 12:27N 39°33' E 011°13'1022.9
2015-Jul-01 12:00N 39°30' E 011°00'712.9 150 / 21020.010.8 1.029.024.526.0
2015-Jul-01 11:25N 39°25' E 010°52'1716.8
2015-Jul-01 10:24N 39°18' E 010°33'3116.9
2015-Jul-01 08:33N 39°04' E 009°56'1716.8
2015-Jul-01 07:33N 38°57' E 009°36'1616.1
2015-Jul-01 06:33N 39°01' E 009°16'1313.4
2015-Jul-01 05:33N 39°12' E 009°06'1 1.4
2015-Jul-01 04:32N 39°13' E 009°04'0 0.0
2015-Jul-01 03:32N 39°13' E 009°04'0 0.0
2015-Jul-01 02:29N 39°13' E 009°04'0 0.0
2015-Jul-01 01:29N 39°13' E 009°04'0 0.0
2015-Jul-01 00:32N 39°13' E 009°04'0 0.0
2015-Jun-30 23:26N 39°13' E 009°04'0 0.0
2015-Jun-30 22:29N 39°13' E 009°04'0 0.0
2015-Jun-30 21:32N 39°13' E 009°04'0 0.0
2015-Jun-30 20:32N 39°13' E 009°04'0 0.0
2015-Jun-30 19:32N 39°13' E 009°04'0 0.0
2015-Jun-30 18:29N 39°13' E 009°04'0 0.0
2015-Jun-30 17:29N 39°13' E 009°04'0 0.0
2015-Jun-30 16:32N 39°13' E 009°04'0 0.0
2015-Jun-30 15:26N 39°13' E 009°04'0 0.0
2015-Jun-30 14:29N 39°13' E 009°04'0 0.0
2015-Jun-30 13:32N 39°13' E 009°04'0 0.0
2015-Jun-30 12:32N 39°13' E 009°04'0 0.0
2015-Jun-30 11:26N 39°13' E 009°04'0 0.0
2015-Jun-30 10:20N 39°13' E 009°04'0 0.0
2015-Jun-30 09:32N 39°13' E 009°04'0 0.0
2015-Jun-30 08:08N 39°13' E 009°04'0 0.0
2015-Jun-30 07:32N 39°13' E 009°04'0 0.0
2015-Jun-30 06:33N 39°13' E 009°04'0 0.0
2015-Jun-30 05:33N 39°13' E 009°04'0 0.0
2015-Jun-30 04:31N 39°13' E 009°04'0 0.0
2015-Jun-30 03:16N 39°13' E 009°04'0 0.0
2015-Jun-30 02:28N 39°13' E 009°04'0 0.0
2015-Jun-30 01:28N 39°13' E 009°04'0 0.0
2015-Jun-30 00:31N 39°13' E 009°04'0 0.0
2015-Jun-29 23:28N 39°13' E 009°04'0 0.0
2015-Jun-29 22:31N 39°13' E 009°04'0 0.0
2015-Jun-29 21:26N 39°13' E 009°04'0 0.0
2015-Jun-29 20:32N 39°13' E 009°04'0 0.0
2015-Jun-29 19:32N 39°13' E 009°04'0 0.0
2015-Jun-29 18:26N 39°13' E 009°04'0 0.0
2015-Jun-29 17:33N 39°13' E 009°04'4 4.0
2015-Jun-29 16:33N 39°09' E 009°06'1514.5
2015-Jun-29 15:33N 38°55' E 009°06'6 6.0
2015-Jun-29 14:33N 38°49' E 009°02'0 0.3
2015-Jun-29 13:32N 38°49' E 009°03'1 0.6
2015-Jun-29 12:33N 38°49' E 009°03'1 0.6
2015-Jun-29 11:33N 38°49' E 009°04'1 0.6
2015-Jun-29 10:33N 38°50' E 009°05'0 0.5
2015-Jun-29 09:33N 38°50' E 009°05'0 0.5
2015-Jun-29 08:32N 38°50' E 009°06'1 0.6
2015-Jun-29 06:32N 38°50' E 009°07'1211.2
2015-Jun-29 05:27N 38°41' E 008°56'1415.3
2015-Jun-29 04:33N 38°38' E 008°39'6415.4
2015-Jun-29 00:23N 38°26' E 007°18'6315.4
2015-Jun-28 20:17N 38°15' E 005°59'1315.3
2015-Jun-28 19:27N 38°13' E 005°43'1315.1
2015-Jun-28 18:33N 38°11' E 005°26'1515.0
2015-Jun-28 17:33N 38°08' E 005°08'1514.8
2015-Jun-28 16:33N 38°05' E 004°49'1514.7
2015-Jun-28 15:33N 38°03' E 004°31'1514.8
2015-Jun-28 14:33N 38°00' E 004°12'1514.9
2015-Jun-28 13:33N 37°57' E 003°54'1515.3
2015-Jun-28 12:33N 37°55' E 003°35'1715.0
2015-Jun-28 11:27N 37°52' E 003°14'1314.7
2015-Jun-28 10:33N 37°49' E 002°57'1514.7
2015-Jun-28 09:33N 37°47' E 002°39'1514.9
2015-Jun-28 08:33N 37°44' E 002°21'1616.0
2015-Jun-28 07:32N 37°41' E 002°01'1917.1
2015-Jun-28 06:27N 37°38' E 001°37'1315.0
2015-Jun-28 05:33N 37°36' E 001°21'1515.2
2015-Jun-28 04:33N 37°33' E 001°02'1615.5
2015-Jun-28 03:33N 37°30' E 000°42'1514.5
2015-Jun-28 02:33N 37°27' E 000°24'1514.7
2015-Jun-28 01:33N 37°24' E 000°06'1514.5
2015-Jun-28 00:33N 37°18' W 000°11'915.7
2015-Jun-28 00:00N 37°12' W 000°18'715.4 350 / 111022.0 5.4 2.023.021.224.0
2015-Jun-27 23:33N 37°11' W 000°26'1515.0
2015-Jun-27 22:33N 37°03' W 000°42'1514.9
2015-Jun-27 21:33N 36°56' W 000°59'1615.1
2015-Jun-27 20:29N 36°47' W 001°16'1814.9
2015-Jun-27 19:16N 36°38' W 001°35'1114.7
2015-Jun-27 18:33N 36°32' W 001°46'1514.6
2015-Jun-27 17:33N 36°25' W 002°02'1514.8
2015-Jun-27 16:33N 36°21' W 002°20'1514.8
2015-Jun-27 15:33N 36°17' W 002°37'1515.4
2015-Jun-27 14:33N 36°15' W 002°56'3814.8
2015-Jun-27 12:00N 36°06' W 003°42'7516.3 060 / 111019.010.8 2.026.021.522.0
2015-Jun-27 07:24N 36°00' W 005°15'1416.3
2015-Jun-27 06:33N 35°56' W 005°31'8713.2
2015-Jun-27 00:00N 36°00' W 007°18'5815.6 040 / 181017.010.8 3.023.015.623.0
2015-Jun-26 20:16N 36°13' W 008°28'1215.1
2015-Jun-26 19:28N 36°15' W 008°43'1415.2
2015-Jun-26 18:34N 36°17' W 008°60'1515.2
2015-Jun-26 17:33N 36°20' W 009°19'1514.9
2015-Jun-26 16:34N 36°23' W 009°37'1514.9
2015-Jun-26 15:33N 36°25' W 009°55'4 7.8
2015-Jun-26 15:00N 36°24' W 010°00'1124.9 360 / 201021.010.8 3.024.019.021.0
2015-Jun-26 14:33N 36°28' W 010°13'1717.1
2015-Jun-26 13:33N 36°31' W 010°34'1515.5
2015-Jun-26 12:34N 36°33' W 010°53'1514.6
2015-Jun-26 11:33N 36°36' W 011°11'1514.6
2015-Jun-26 10:33N 36°38' W 011°29'1414.5
2015-Jun-26 09:33N 36°40' W 011°46'1514.6
2015-Jun-26 08:32N 36°42' W 012°05'1414.7
2015-Jun-26 07:33N 36°44' W 012°23'1514.9
2015-Jun-26 06:33N 36°47' W 012°41'610.2
2015-Jun-26 06:00N 36°48' W 012°48'1020.1 010 / 131023.610.8 19.315.021.0
2015-Jun-26 05:29N 36°49' W 013°01'1414.9
2015-Jun-26 04:33N 36°51' W 013°18'1514.8
2015-Jun-26 03:33N 36°53' W 013°36'5 8.6
2015-Jun-26 03:00N 36°54' W 013°42'1022.7 360 / 101024.0 5.4 2.019.016.521.0
2015-Jun-26 02:32N 36°55' W 013°55'1514.8
2015-Jun-26 01:32N 36°57' W 014°13'1514.9
2015-Jun-26 00:32N 36°58' W 014°32'9514.5
2015-Jun-25 18:00N 37°06' W 016°30'4816.1 230 / 71023.510.8 26.018.222.0
2015-Jun-25 15:00N 37°12' W 017°30'12013.3 220 / 111023.010.8 2.023.017.921.0
2015-Jun-25 06:00N 37°24' W 020°00'1320.3 220 / 81021.210.8 20.318.621.0
2015-Jun-25 05:22N 37°24' W 020°16'2015.2
2015-Jun-25 04:04N 37°25' W 020°41'915.6
2015-Jun-25 03:30N 37°26' W 020°52'713.1
2015-Jun-25 03:00N 37°24' W 021°00'919.5 230 / 121021.010.8 2.020.016.422.0
2015-Jun-25 02:33N 37°27' W 021°10'2015.5
2015-Jun-25 01:14N 37°28' W 021°36'1115.2
2015-Jun-25 00:30N 37°28' W 021°50'  

Dump ship's entire track history